Saturday, January 20, 2018, 8:19 AM EST
Back to Local

KACK, Nantucket Memorial Airport

Location: Nantucket, MA, United States Lat: 41.25
Local Time: 8:19 AM EST (13:19 GMT) Lon: -70.067
Time Zone: US/Eastern Elev: 49 ft

Show me the last for .
Show Coded

Time T Td Feel RH Dir Speed Gust Alt SLP Vis Weather Sky Remarks
2018-01-20 07:53 40 37 31 89 220° 18 - 29.80 29.80 10 CLR None
2018-01-20 06:53 39 37 30 92 210° 16 - 29.81 29.80 10 CLR 6-hr Min Temp (7am): 28.0°F
6-hr Max Temp (7am): 39.0°F
2018-01-20 05:53 38 37 29 96 220° 15 - 29.84 29.84 10 CLR None
2018-01-20 04:53 38 36 29 92 210° 15 - 29.86 29.86 10 CLR None
2018-01-20 03:53 36 34 28 92 200° 12 - 29.87 29.87 9 CLR None
2018-01-20 01:53 33 30 25 88 210° 9 - 29.92 29.92 10 CLR None
2018-01-20 00:53 30 27 22 88 250° 8 - 29.93 29.92 10 CLR 6-hr Min Temp (1am): 28.0°F
6-hr Max Temp (1am): 32.0°F
2018-01-19 23:53 31 27 24 85 250° 7 - 29.96 29.96 10 CLR 24-hr Min Temp (12am): 24.1°F
24-hr Max Temp (12am): 34.0°F
2018-01-19 22:53 30 27 22 88 250° 8 - 29.97 29.97 10 CLR None
2018-01-19 21:53 31 25 23 78 270° 8 - 29.98 29.98 10 CLR None
2018-01-19 20:53 32 26 23 78 270° 12 - 29.98 29.98 10 CLR None
2018-01-19 19:53 30 25 22 81 260° 9 - 29.96 29.96 10 CLR None
2018-01-19 18:53 31 25 22 78 260° 10 - 29.96 29.96 10 CLR 6-hr Min Temp (7pm): 30.0°F
6-hr Max Temp (7pm): 34.0°F
2018-01-19 17:53 31 25 22 78 270° 10 - 29.97 29.96 10 CLR None
2018-01-19 16:53 31 24 24 75 270° 7 - 29.96 29.96 10 CLR None
2018-01-19 15:53 32 24 24 72 270° 10 - 29.96 29.96 10 CLR None
2018-01-19 14:53 33 22 24 63 270° 12 - 29.94 29.94 10 CLR None
2018-01-19 13:53 33 22 23 63 260° 16 - 29.94 29.94 10 CLR None
2018-01-19 12:53 34 21 25 58 270° 12 - 29.94 29.94 10 CLR 6-hr Min Temp (1pm): 24.1°F
6-hr Max Temp (1pm): 34.0°F
2018-01-19 11:53 32 21 22 63 280° 14 - 29.97 29.97 10 CLR None
2018-01-19 10:53 31 21 21 66 270° 14 - 30.00 30.00 10 FEW022 None
2018-01-19 09:53 28 20 18 71 280° 12 - 30.01 30.01 10 CLR None
2018-01-19 08:53 28 21 17 74 290° 15 - 30.01 30.01 10 CLR None

Support USWX by starting your Amazon purchase here.